createdAt,value
2022-08-17T00:00:07.110Z,23.02
2022-08-17T00:01:07.099Z,23.06
2022-08-17T00:02:26.399Z,23.05
2022-08-17T00:03:08.025Z,23.00
2022-08-17T00:04:11.687Z,22.99
2022-08-17T00:05:08.027Z,23.00
2022-08-17T00:06:07.144Z,23.00
2022-08-17T00:07:06.982Z,22.96
2022-08-17T00:08:06.968Z,22.96
2022-08-17T00:09:06.958Z,22.98
2022-08-17T00:10:06.950Z,22.94
2022-08-17T00:11:06.958Z,22.84
2022-08-17T00:12:43.116Z,22.80
2022-08-17T00:13:07.922Z,22.99
2022-08-17T00:14:06.917Z,22.85
2022-08-17T00:15:10.349Z,22.80
2022-08-17T00:16:06.902Z,22.90
2022-08-17T00:17:06.904Z,22.87
2022-08-17T00:19:02.443Z,22.87
2022-08-17T00:19:08.843Z,22.78
2022-08-17T00:20:06.836Z,22.81
2022-08-17T00:21:10.682Z,22.76
2022-08-17T00:22:35.179Z,22.83
2022-08-17T00:23:07.797Z,22.81
2022-08-17T00:24:06.788Z,22.80
2022-08-17T00:25:06.778Z,22.65
2022-08-17T00:26:06.797Z,22.73
2022-08-17T00:27:06.802Z,22.70
2022-08-17T00:28:06.744Z,22.76
2022-08-17T00:29:06.737Z,22.66
2022-08-17T00:30:06.725Z,22.63
2022-08-17T00:31:06.737Z,22.62
2022-08-17T00:33:14.163Z,22.66
2022-08-17T00:33:15.071Z,22.65
2022-08-17T00:34:07.678Z,22.63
2022-08-17T00:35:06.666Z,22.63
2022-08-17T00:36:06.678Z,22.65
2022-08-17T00:37:06.643Z,22.60
2022-08-17T00:38:06.652Z,22.66
2022-08-17T00:39:06.668Z,22.65
2022-08-17T00:40:06.713Z,22.68
2022-08-17T00:41:06.599Z,22.55
2022-08-17T00:42:06.589Z,22.66
2022-08-17T00:43:06.575Z,22.54
2022-08-17T00:44:06.566Z,22.57
2022-08-17T00:45:06.575Z,22.59
2022-08-17T00:46:06.585Z,22.53
2022-08-17T00:47:06.549Z,22.44
2022-08-17T00:48:06.521Z,22.51
2022-08-17T00:49:07.507Z,22.44
2022-08-17T00:50:06.494Z,22.45
2022-08-17T00:51:06.492Z,22.45
2022-08-17T00:52:11.659Z,22.41
2022-08-17T00:53:08.390Z,22.53
2022-08-17T00:54:06.468Z,22.51
2022-08-17T00:55:06.442Z,22.43
2022-08-17T00:56:06.458Z,22.50
2022-08-17T00:57:06.426Z,22.50
2022-08-17T00:58:06.407Z,22.47
2022-08-17T00:59:06.398Z,22.51
2022-08-17T01:00:06.390Z,22.47
2022-08-17T01:01:06.432Z,22.48
2022-08-17T01:02:06.667Z,22.53
2022-08-17T01:03:06.377Z,22.53
2022-08-17T01:04:06.339Z,22.50
2022-08-17T01:05:06.336Z,22.53
2022-08-17T01:06:06.477Z,22.48
2022-08-17T01:07:06.327Z,22.55
2022-08-17T01:08:06.354Z,22.47
2022-08-17T01:09:06.288Z,22.51
2022-08-17T01:10:06.275Z,22.41
2022-08-17T01:11:06.262Z,22.41
2022-08-17T01:12:06.290Z,22.53
2022-08-17T01:13:06.249Z,22.43
2022-08-17T01:14:06.233Z,22.54
2022-08-17T01:15:06.224Z,22.53
2022-08-17T01:16:06.205Z,22.48
2022-08-17T01:17:06.228Z,22.39
2022-08-17T01:18:06.197Z,22.44
2022-08-17T01:19:06.419Z,22.45
2022-08-17T01:20:06.163Z,22.45
2022-08-17T01:21:06.153Z,22.45
2022-08-17T01:22:06.158Z,22.38
2022-08-17T01:23:06.131Z,22.44
2022-08-17T01:24:06.114Z,22.41
2022-08-17T01:25:06.868Z,22.44
2022-08-17T01:26:06.104Z,22.50
2022-08-17T01:27:10.377Z,22.41
2022-08-17T01:28:06.092Z,22.41
2022-08-17T01:29:06.062Z,22.44
2022-08-17T01:30:06.056Z,22.43
2022-08-17T01:31:07.042Z,22.38
2022-08-17T01:32:06.040Z,22.35
2022-08-17T01:33:06.045Z,22.28
2022-08-17T01:34:06.001Z,22.28
2022-08-17T01:35:05.997Z,22.33
2022-08-17T01:36:06.072Z,22.33
2022-08-17T01:37:05.970Z,22.28
2022-08-17T01:38:05.980Z,22.28
2022-08-17T01:39:05.952Z,22.26
2022-08-17T01:40:06.018Z,22.30
2022-08-17T01:41:05.929Z,22.25
2022-08-17T01:42:05.920Z,22.25
2022-08-17T01:43:06.164Z,22.25
2022-08-17T01:44:06.020Z,22.32
2022-08-17T01:45:05.889Z,22.30
2022-08-17T01:46:05.873Z,22.29
2022-08-17T01:47:05.862Z,22.30
2022-08-17T01:48:05.848Z,22.29
2022-08-17T01:49:05.859Z,22.18
2022-08-17T01:50:05.825Z,22.25
2022-08-17T01:51:05.832Z,22.32
2022-08-17T01:52:05.818Z,22.17
2022-08-17T01:53:05.799Z,22.22
2022-08-17T01:54:05.789Z,22.13
2022-08-17T01:55:05.770Z,22.11
2022-08-17T01:56:05.776Z,22.07
2022-08-17T01:57:05.767Z,21.98
2022-08-17T01:58:05.742Z,21.91
2022-08-17T01:59:05.758Z,21.92
2022-08-17T02:00:05.735Z,21.95
2022-08-17T02:01:05.718Z,21.77
2022-08-17T02:02:05.692Z,21.92
2022-08-17T02:03:05.683Z,21.83
2022-08-17T02:04:05.672Z,21.91
2022-08-17T02:05:05.679Z,21.85
2022-08-17T02:06:05.647Z,21.91
2022-08-17T02:07:06.635Z,22.04
2022-08-17T02:08:05.627Z,21.95
2022-08-17T02:09:05.631Z,22.00
2022-08-17T02:10:05.655Z,22.07
2022-08-17T02:11:08.967Z,22.00
2022-08-17T02:12:38.852Z,21.93
2022-08-17T02:13:06.580Z,21.95
2022-08-17T02:14:05.667Z,21.96
2022-08-17T02:15:05.577Z,21.96
2022-08-17T02:16:05.542Z,22.04
2022-08-17T02:17:05.530Z,21.98
2022-08-17T02:18:05.539Z,22.00
2022-08-17T02:19:05.505Z,22.04
2022-08-17T02:20:05.492Z,21.98
2022-08-17T02:21:05.483Z,21.98
2022-08-17T02:22:05.473Z,21.96
2022-08-17T02:23:05.469Z,21.93
2022-08-17T02:24:05.487Z,21.91
2022-08-17T02:25:05.447Z,21.92
2022-08-17T02:26:05.435Z,21.92
2022-08-17T02:27:05.435Z,21.95
2022-08-17T02:28:05.405Z,21.89
2022-08-17T02:29:05.450Z,21.91
2022-08-17T02:30:05.400Z,21.91
2022-08-17T02:31:06.656Z,21.79
2022-08-17T02:32:05.393Z,21.93
2022-08-17T02:33:06.376Z,21.95
2022-08-17T02:34:05.521Z,21.93
2022-08-17T02:35:05.341Z,21.79
2022-08-17T02:36:05.329Z,21.85
2022-08-17T02:37:05.327Z,21.79
2022-08-17T02:38:05.342Z,21.89
2022-08-17T02:39:05.295Z,21.80
2022-08-17T02:40:05.352Z,21.80
2022-08-17T02:41:05.268Z,21.79
2022-08-17T02:42:05.894Z,21.82
2022-08-17T02:43:05.261Z,21.83
2022-08-17T02:44:14.922Z,21.80
2022-08-17T02:45:06.219Z,21.69
2022-08-17T02:46:05.235Z,21.72
2022-08-17T02:47:05.211Z,21.70
2022-08-17T02:48:05.193Z,21.67
2022-08-17T02:49:05.178Z,21.67
2022-08-17T02:50:05.160Z,21.66
2022-08-17T02:51:05.154Z,21.67
2022-08-17T02:52:05.137Z,21.72
2022-08-17T02:53:05.538Z,21.77
2022-08-17T02:54:39.267Z,21.72
2022-08-17T02:55:06.106Z,21.72
2022-08-17T02:56:05.102Z,21.72
2022-08-17T02:57:05.227Z,21.69
2022-08-17T02:58:05.099Z,21.73
2022-08-17T02:59:05.060Z,21.69
2022-08-17T03:00:05.051Z,21.70
2022-08-17T03:01:06.104Z,21.72
2022-08-17T03:02:05.094Z,21.70
2022-08-17T03:03:05.041Z,21.73
2022-08-17T03:04:05.031Z,21.69
2022-08-17T03:05:04.999Z,21.67
2022-08-17T03:06:04.988Z,21.62
2022-08-17T03:07:04.996Z,21.67
2022-08-17T03:08:04.967Z,21.46
2022-08-17T03:09:04.981Z,21.45
2022-08-17T03:10:04.941Z,21.46
2022-08-17T03:11:04.932Z,21.40
2022-08-17T03:12:04.990Z,21.39
2022-08-17T03:13:04.930Z,21.36
2022-08-17T03:14:05.269Z,21.42
2022-08-17T03:15:04.895Z,21.50
2022-08-17T03:16:04.895Z,21.39
2022-08-17T03:17:04.867Z,21.32
2022-08-17T03:18:05.396Z,21.37
2022-08-17T03:19:04.859Z,21.32
2022-08-17T03:20:04.834Z,21.33
2022-08-17T03:21:04.842Z,21.24
2022-08-17T03:22:35.483Z,21.29
2022-08-17T03:23:05.798Z,21.42
2022-08-17T03:24:08.993Z,21.32
2022-08-17T03:25:04.792Z,21.43
2022-08-17T03:26:05.791Z,21.36
2022-08-17T03:27:05.766Z,21.39
2022-08-17T03:28:04.753Z,21.37
2022-08-17T03:29:04.749Z,21.39
2022-08-17T03:30:04.753Z,21.35
2022-08-17T03:31:05.450Z,21.37
2022-08-17T03:32:04.709Z,21.46
2022-08-17T03:33:04.713Z,21.46
2022-08-17T03:34:04.685Z,21.48
2022-08-17T03:35:04.813Z,21.46
2022-08-17T03:36:04.680Z,21.43
2022-08-17T03:37:04.662Z,21.40
2022-08-17T03:38:04.639Z,21.40
2022-08-17T03:39:04.634Z,21.39
2022-08-17T03:40:04.709Z,21.36
2022-08-17T03:41:04.626Z,21.27
2022-08-17T03:42:04.588Z,21.33
2022-08-17T03:43:04.582Z,21.29
2022-08-17T03:44:04.600Z,21.22
2022-08-17T03:45:04.565Z,21.22
2022-08-17T03:46:04.558Z,21.22
2022-08-17T03:47:04.566Z,21.27
2022-08-17T03:48:04.526Z,21.27
2022-08-17T03:49:04.523Z,21.29
2022-08-17T03:50:04.759Z,21.25
2022-08-17T03:51:04.494Z,21.14
2022-08-17T03:52:04.491Z,21.11
2022-08-17T03:53:04.491Z,21.11
2022-08-17T03:54:04.767Z,21.09
2022-08-17T03:55:04.461Z,21.06
2022-08-17T03:56:04.437Z,21.07
2022-08-17T03:57:04.433Z,21.00
2022-08-17T03:58:04.487Z,21.03
2022-08-17T03:59:04.421Z,21.03
2022-08-17T04:00:04.393Z,21.11
2022-08-17T04:01:04.435Z,21.15
2022-08-17T04:02:04.370Z,21.03
2022-08-17T04:03:04.383Z,21.22
2022-08-17T04:04:04.351Z,21.20
2022-08-17T04:05:04.353Z,21.21
2022-08-17T04:06:04.331Z,21.20
2022-08-17T04:07:04.527Z,21.14
2022-08-17T04:08:05.249Z,21.18
2022-08-17T04:09:04.294Z,21.27
2022-08-17T04:10:04.285Z,21.22
2022-08-17T04:11:04.407Z,21.18
2022-08-17T04:12:04.578Z,21.29
2022-08-17T04:13:04.255Z,21.35
2022-08-17T04:14:04.239Z,21.32
2022-08-17T04:15:04.227Z,21.30
2022-08-17T04:16:04.214Z,21.29
2022-08-17T04:17:04.218Z,21.27
2022-08-17T04:18:04.192Z,21.29
2022-08-17T04:19:04.186Z,21.39
2022-08-17T04:20:04.191Z,21.39
2022-08-17T04:21:04.169Z,21.45
2022-08-17T04:22:04.156Z,21.30
2022-08-17T04:23:04.142Z,21.29
2022-08-17T04:24:04.244Z,21.33
2022-08-17T04:25:04.136Z,21.37
2022-08-17T04:26:04.115Z,21.30
2022-08-17T04:27:04.118Z,21.40
2022-08-17T04:28:04.338Z,21.35
2022-08-17T04:29:04.077Z,21.42
2022-08-17T04:30:04.067Z,21.36
2022-08-17T04:31:04.065Z,21.52
2022-08-17T04:32:04.032Z,21.50
2022-08-17T04:33:07.089Z,21.50
2022-08-17T04:34:04.017Z,21.52
2022-08-17T04:35:04.005Z,21.50
2022-08-17T04:36:04.013Z,21.61
2022-08-17T04:37:03.985Z,21.51
2022-08-17T04:38:03.998Z,21.67
2022-08-17T04:39:03.964Z,21.66
2022-08-17T04:40:04.549Z,21.76
2022-08-17T04:41:04.052Z,21.70
2022-08-17T04:42:03.937Z,21.67
2022-08-17T04:43:03.941Z,21.73
2022-08-17T04:44:03.898Z,21.75
2022-08-17T04:45:04.070Z,21.77
2022-08-17T04:46:03.882Z,21.82
2022-08-17T04:47:03.956Z,21.80
2022-08-17T04:48:03.879Z,21.91
2022-08-17T04:49:03.862Z,21.92
2022-08-17T04:50:03.835Z,21.91
2022-08-17T04:51:03.839Z,21.96
2022-08-17T04:52:04.777Z,22.02
2022-08-17T04:53:03.825Z,22.10
2022-08-17T04:54:03.814Z,22.11
2022-08-17T04:55:03.780Z,22.15
2022-08-17T04:56:03.767Z,22.14
2022-08-17T04:57:03.782Z,22.18
2022-08-17T04:58:03.769Z,22.18
2022-08-17T04:59:03.734Z,22.22
2022-08-17T05:00:03.743Z,22.25
2022-08-17T05:01:03.789Z,22.32
2022-08-17T05:03:17.830Z,22.36
2022-08-17T05:04:33.459Z,22.39
2022-08-17T05:05:18.811Z,22.50
2022-08-17T05:06:17.791Z,22.65
2022-08-17T05:07:23.072Z,22.70
2022-08-17T05:08:18.779Z,22.81
2022-08-17T05:09:17.768Z,22.93
2022-08-17T05:10:17.754Z,23.08
2022-08-17T05:11:17.739Z,23.12
2022-08-17T05:12:17.730Z,23.10
2022-08-17T05:13:17.734Z,23.24
2022-08-17T05:14:17.713Z,23.25
2022-08-17T05:15:17.694Z,23.31
2022-08-17T05:16:17.685Z,23.31
2022-08-17T05:17:17.938Z,23.36
2022-08-17T05:18:17.716Z,23.40
2022-08-17T05:19:17.688Z,23.44
2022-08-17T05:20:17.669Z,23.46
2022-08-17T05:21:17.641Z,23.39
2022-08-17T05:22:17.621Z,23.44
2022-08-17T05:23:17.607Z,23.43
2022-08-17T05:24:38.963Z,23.40
2022-08-17T05:25:18.623Z,23.40
2022-08-17T05:26:25.546Z,23.44
2022-08-17T05:27:19.164Z,23.54
2022-08-17T05:28:17.550Z,23.62
2022-08-17T05:29:17.560Z,23.61
2022-08-17T05:30:17.527Z,23.73
2022-08-17T05:31:17.514Z,23.73
2022-08-17T05:32:37.772Z,23.80
2022-08-17T05:33:18.497Z,23.80
2022-08-17T05:34:17.627Z,23.84
2022-08-17T05:35:17.477Z,23.77
2022-08-17T05:36:43.386Z,23.83
2022-08-17T05:37:18.447Z,23.93
2022-08-17T05:38:17.483Z,23.96
2022-08-17T05:39:17.526Z,24.02
2022-08-17T05:40:17.419Z,23.99
2022-08-17T05:41:17.478Z,24.05
2022-08-17T05:42:17.397Z,24.06
2022-08-17T05:43:17.406Z,24.11
2022-08-17T05:44:17.370Z,24.20
2022-08-17T05:45:32.121Z,24.28
2022-08-17T05:46:18.356Z,24.32
2022-08-17T05:47:17.346Z,24.35
2022-08-17T05:48:17.343Z,24.38
2022-08-17T05:49:17.314Z,24.30
2022-08-17T05:50:18.102Z,24.39
2022-08-17T05:51:17.369Z,24.38
2022-08-17T05:52:19.593Z,24.36
2022-08-17T05:53:17.274Z,24.36
2022-08-17T05:54:17.287Z,24.40
2022-08-17T05:55:17.302Z,24.51
2022-08-17T05:56:29.605Z,24.51
2022-08-17T05:57:18.226Z,24.73
2022-08-17T05:58:17.399Z,24.74
2022-08-17T05:59:17.201Z,24.81
2022-08-17T06:00:20.599Z,24.76
2022-08-17T06:01:17.267Z,24.80
2022-08-17T06:02:17.175Z,24.81
2022-08-17T06:03:17.166Z,24.78
2022-08-17T06:04:17.163Z,24.81
2022-08-17T06:05:17.188Z,24.77
2022-08-17T06:06:17.128Z,24.77
2022-08-17T06:07:17.120Z,24.84
2022-08-17T06:08:17.235Z,25.01
2022-08-17T06:09:21.195Z,25.01
2022-08-17T06:10:18.084Z,25.06
2022-08-17T06:11:17.071Z,25.01
2022-08-17T06:12:19.707Z,25.13
2022-08-17T06:13:17.048Z,25.32
2022-08-17T06:14:17.114Z,25.29
2022-08-17T06:15:17.030Z,25.35
2022-08-17T06:16:33.231Z,25.41
2022-08-17T06:17:18.009Z,25.58
2022-08-17T06:18:19.151Z,25.78
2022-08-17T06:19:17.000Z,25.85
2022-08-17T06:20:16.995Z,26.00
2022-08-17T06:21:16.964Z,26.29
2022-08-17T06:22:16.952Z,26.37
2022-08-17T06:23:16.941Z,26.59
2022-08-17T06:24:16.928Z,26.78
2022-08-17T06:25:16.940Z,26.85
2022-08-17T06:26:16.907Z,26.81
2022-08-17T06:27:17.566Z,26.92
2022-08-17T06:28:16.883Z,27.08
2022-08-17T06:29:18.835Z,27.20
2022-08-17T06:30:16.882Z,27.33
2022-08-17T06:31:17.068Z,27.51
2022-08-17T06:32:16.840Z,27.75
2022-08-17T06:33:16.831Z,28.02
2022-08-17T06:34:16.901Z,28.23
2022-08-17T06:35:16.827Z,28.48
2022-08-17T06:36:16.835Z,28.86
2022-08-17T06:37:16.834Z,29.14
2022-08-17T06:38:36.929Z,29.49
2022-08-17T06:39:17.785Z,29.78
2022-08-17T06:40:16.757Z,29.97
2022-08-17T06:41:16.744Z,30.23
2022-08-17T06:43:05.150Z,30.61
2022-08-17T06:43:17.739Z,31.05
2022-08-17T06:44:42.172Z,31.37
2022-08-17T06:45:17.700Z,31.70
2022-08-17T06:46:16.710Z,31.97
2022-08-17T06:47:28.931Z,32.29
2022-08-17T06:48:17.883Z,32.70
2022-08-17T06:49:16.676Z,32.65
2022-08-17T06:50:16.645Z,32.51
2022-08-17T06:51:16.636Z,32.19
2022-08-17T06:52:37.083Z,31.87
2022-08-17T06:53:17.629Z,31.70
2022-08-17T06:54:16.600Z,31.52
2022-08-17T06:55:18.658Z,31.84
2022-08-17T06:56:16.609Z,32.49
2022-08-17T06:57:16.574Z,32.96
2022-08-17T06:58:16.909Z,33.45
2022-08-17T06:59:16.650Z,33.77
2022-08-17T07:00:16.595Z,33.89
2022-08-17T07:01:16.640Z,34.24
2022-08-17T07:02:16.518Z,34.90
2022-08-17T07:03:16.682Z,35.44
2022-08-17T07:04:16.489Z,36.02
2022-08-17T07:05:16.490Z,36.61
2022-08-17T07:06:16.497Z,37.18
2022-08-17T07:07:16.493Z,37.55
2022-08-17T07:08:16.452Z,37.83
2022-08-17T07:09:16.438Z,38.08
2022-08-17T07:10:16.442Z,38.64
2022-08-17T07:11:16.417Z,38.97
2022-08-17T07:12:16.422Z,39.33
2022-08-17T07:13:16.394Z,39.17
2022-08-17T07:14:17.456Z,39.34
2022-08-17T07:15:16.393Z,39.51
2022-08-17T07:16:16.456Z,39.49
2022-08-17T07:17:16.355Z,39.89
2022-08-17T07:18:16.358Z,40.40
2022-08-17T07:19:16.357Z,40.95
2022-08-17T07:20:16.424Z,41.45
2022-08-17T07:21:18.524Z,41.59
2022-08-17T07:22:16.301Z,41.66
2022-08-17T07:23:16.289Z,41.60
2022-08-17T07:24:30.280Z,41.55
2022-08-17T07:25:17.274Z,41.77
2022-08-17T07:26:16.257Z,41.82
2022-08-17T07:27:16.276Z,41.77
2022-08-17T07:28:16.239Z,41.53
2022-08-17T07:29:16.251Z,41.06
2022-08-17T07:30:16.236Z,40.75
2022-08-17T07:31:16.209Z,40.80
2022-08-17T07:32:16.201Z,40.91
2022-08-17T07:33:16.255Z,41.09
2022-08-17T07:34:16.229Z,40.91
2022-08-17T07:35:16.182Z,41.36
2022-08-17T07:36:16.174Z,41.85
2022-08-17T07:37:16.200Z,42.04
2022-08-17T07:38:25.205Z,42.43
2022-08-17T07:39:17.173Z,42.55
2022-08-17T07:40:16.962Z,42.20
2022-08-17T07:41:16.111Z,42.57
2022-08-17T07:42:16.102Z,42.84
2022-08-17T07:43:23.360Z,42.67
2022-08-17T07:44:17.085Z,41.90
2022-08-17T07:45:16.068Z,41.65
2022-08-17T07:46:16.078Z,41.60
2022-08-17T07:47:16.051Z,41.91
2022-08-17T07:48:16.038Z,42.44
2022-08-17T07:49:16.028Z,43.08
2022-08-17T07:50:16.187Z,43.57
2022-08-17T07:51:16.009Z,44.18
2022-08-17T07:52:48.114Z,44.65
2022-08-17T07:53:16.984Z,44.98
2022-08-17T07:54:16.111Z,45.29
2022-08-17T07:55:15.989Z,45.08
2022-08-17T07:56:15.961Z,44.68
2022-08-17T07:57:15.945Z,44.49
2022-08-17T07:58:15.935Z,44.61
2022-08-17T07:59:15.926Z,44.52
2022-08-17T08:00:16.259Z,44.18
2022-08-17T08:01:15.937Z,44.03
2022-08-17T08:02:16.857Z,43.80
2022-08-17T08:03:15.884Z,43.96
2022-08-17T08:04:19.414Z,44.10
2022-08-17T08:05:25.070Z,44.78
2022-08-17T08:06:16.858Z,45.34
2022-08-17T08:07:16.113Z,45.50
2022-08-17T08:08:15.882Z,45.81
2022-08-17T08:09:15.977Z,45.89
2022-08-17T08:10:15.855Z,46.16
2022-08-17T08:11:15.832Z,46.29
2022-08-17T08:12:15.979Z,46.66
2022-08-17T08:13:15.791Z,46.84
2022-08-17T08:14:15.803Z,46.99
2022-08-17T08:15:15.788Z,46.58
2022-08-17T08:16:15.768Z,46.42
2022-08-17T08:17:15.753Z,46.50
2022-08-17T08:18:15.744Z,46.47
2022-08-17T08:19:20.911Z,46.17
2022-08-17T08:20:34.915Z,46.19
2022-08-17T08:21:16.721Z,46.32
2022-08-17T08:22:16.155Z,46.47
2022-08-17T08:23:15.731Z,46.53
2022-08-17T08:24:15.689Z,46.41
2022-08-17T08:25:15.677Z,46.53
2022-08-17T08:26:18.647Z,46.62
2022-08-17T08:27:15.656Z,46.92
2022-08-17T08:28:15.649Z,47.20
2022-08-17T08:29:15.646Z,46.70
2022-08-17T08:30:15.633Z,46.42
2022-08-17T08:31:15.643Z,46.07
2022-08-17T08:32:15.608Z,45.93
2022-08-17T08:33:15.620Z,45.87
2022-08-17T08:34:49.700Z,46.08
2022-08-17T08:35:16.582Z,46.50
2022-08-17T08:37:15.419Z,47.06
2022-08-17T08:37:22.669Z,47.75
2022-08-17T08:38:16.555Z,48.29
2022-08-17T08:39:15.766Z,48.81
2022-08-17T08:40:15.637Z,49.13
2022-08-17T08:41:15.546Z,48.79
2022-08-17T08:42:15.514Z,48.19
2022-08-17T08:43:15.625Z,47.72
2022-08-17T08:44:15.494Z,47.36
2022-08-17T08:45:23.154Z,47.46
2022-08-17T08:46:15.478Z,47.81
2022-08-17T08:47:16.486Z,47.99
2022-08-17T08:48:45.860Z,48.53
2022-08-17T08:49:16.463Z,48.74
2022-08-17T08:50:30.255Z,49.32
2022-08-17T08:51:16.492Z,49.95
2022-08-17T08:52:15.421Z,48.98
2022-08-17T08:53:15.438Z,49.36
2022-08-17T08:54:15.408Z,49.23
2022-08-17T08:55:15.396Z,49.20
2022-08-17T08:56:16.145Z,49.51
2022-08-17T08:57:28.029Z,49.99
2022-08-17T08:58:31.665Z,50.36
2022-08-17T08:59:16.357Z,50.65
2022-08-17T09:00:15.357Z,50.85
2022-08-17T09:01:17.238Z,50.46
2022-08-17T09:02:16.104Z,49.63
2022-08-17T09:03:15.324Z,49.48
2022-08-17T09:04:24.642Z,49.79
2022-08-17T09:05:16.395Z,50.09
2022-08-17T09:06:37.390Z,49.68
2022-08-17T09:07:16.285Z,49.68
2022-08-17T09:08:15.291Z,49.97
2022-08-17T09:09:15.286Z,50.04
2022-08-17T09:10:15.260Z,49.75
2022-08-17T09:11:15.275Z,50.02
2022-08-17T09:12:15.261Z,50.40
2022-08-17T09:13:15.234Z,50.74
2022-08-17T09:14:21.459Z,51.15
2022-08-17T09:15:16.238Z,51.72
2022-08-17T09:16:15.235Z,52.12
2022-08-17T09:17:15.210Z,52.24
2022-08-17T09:19:02.576Z,52.46
2022-08-17T09:19:16.369Z,52.75
2022-08-17T09:20:27.189Z,52.80
2022-08-17T09:21:18.240Z,52.27
2022-08-17T09:22:15.160Z,51.72
2022-08-17T09:23:15.152Z,51.83
2022-08-17T09:24:15.196Z,51.69
2022-08-17T09:25:16.168Z,51.29
2022-08-17T09:26:15.126Z,51.53
2022-08-17T09:27:15.112Z,51.72
2022-08-17T09:28:15.107Z,51.70
2022-08-17T09:29:15.213Z,51.34
2022-08-17T09:30:15.091Z,51.32
2022-08-17T09:31:15.084Z,51.39
2022-08-17T09:32:15.068Z,50.39
2022-08-17T09:33:15.064Z,50.24
2022-08-17T09:34:16.107Z,50.58
2022-08-17T09:35:15.047Z,51.46
2022-08-17T09:36:15.065Z,51.58
2022-08-17T09:37:15.027Z,51.34
2022-08-17T09:38:15.021Z,51.53
2022-08-17T09:39:15.034Z,51.67
2022-08-17T09:40:15.068Z,52.18
2022-08-17T09:41:14.988Z,52.56
2022-08-17T09:42:14.982Z,52.56
2022-08-17T09:43:14.976Z,52.73
2022-08-17T09:44:22.920Z,52.93
2022-08-17T09:45:15.986Z,52.93
2022-08-17T09:46:14.947Z,53.33
2022-08-17T09:47:14.962Z,53.66
2022-08-17T09:48:14.947Z,54.09
2022-08-17T09:49:14.929Z,54.08
2022-08-17T09:50:14.924Z,54.27
2022-08-17T09:51:14.906Z,54.55
2022-08-17T09:52:14.900Z,54.72
2022-08-17T09:53:15.291Z,54.77
2022-08-17T09:54:37.700Z,54.81
2022-08-17T09:55:15.875Z,54.52
2022-08-17T09:56:14.868Z,54.23
2022-08-17T09:57:30.496Z,53.85
2022-08-17T09:58:15.876Z,53.40
2022-08-17T09:59:14.842Z,53.21
2022-08-17T10:00:14.909Z,53.21
2022-08-17T10:01:14.878Z,53.15
2022-08-17T10:02:14.840Z,53.19
2022-08-17T10:03:14.811Z,53.35
2022-08-17T10:04:17.719Z,52.90
2022-08-17T10:05:14.841Z,52.42
2022-08-17T10:06:14.784Z,52.27
2022-08-17T10:07:14.820Z,52.25
2022-08-17T10:08:14.782Z,51.69
2022-08-17T10:09:14.762Z,51.39
2022-08-17T10:10:15.026Z,51.42
2022-08-17T10:11:14.747Z,51.65
2022-08-17T10:12:17.128Z,52.04
2022-08-17T10:13:14.731Z,52.24
2022-08-17T10:14:36.869Z,52.43
2022-08-17T10:15:15.715Z,52.96
2022-08-17T10:16:14.704Z,52.94
2022-08-17T10:17:14.711Z,53.13
2022-08-17T10:18:14.689Z,53.54
2022-08-17T10:19:14.684Z,53.66
2022-08-17T10:20:14.775Z,53.78
2022-08-17T10:21:14.724Z,52.87
2022-08-17T10:22:34.766Z,52.84
2022-08-17T10:23:15.666Z,53.09
2022-08-17T10:24:14.660Z,53.57
2022-08-17T10:25:22.349Z,53.50
2022-08-17T10:26:15.632Z,53.26
2022-08-17T10:27:15.194Z,53.12
2022-08-17T10:28:19.627Z,53.03
2022-08-17T10:29:15.597Z,52.42
2022-08-17T10:30:14.641Z,52.11
2022-08-17T10:31:34.243Z,51.16
2022-08-17T10:32:15.596Z,51.05
2022-08-17T10:33:14.586Z,51.50
2022-08-17T10:34:14.556Z,52.08
2022-08-17T10:35:14.566Z,52.25
2022-08-17T10:36:14.575Z,51.85
2022-08-17T10:37:14.559Z,51.32
2022-08-17T10:38:15.164Z,51.20
2022-08-17T10:39:14.519Z,51.05
2022-08-17T10:40:14.660Z,51.15
2022-08-17T10:41:14.528Z,51.17
2022-08-17T10:42:14.534Z,51.12
2022-08-17T10:43:15.482Z,51.46
2022-08-17T10:44:38.182Z,51.67
2022-08-17T10:45:15.617Z,51.73
2022-08-17T10:46:30.026Z,51.94
2022-08-17T10:47:16.164Z,52.23
2022-08-17T10:48:14.469Z,52.47
2022-08-17T10:49:14.461Z,51.97
2022-08-17T10:50:14.434Z,50.78
2022-08-17T10:51:14.430Z,49.02
2022-08-17T10:52:14.454Z,48.14
2022-08-17T10:53:17.937Z,47.90
2022-08-17T10:54:15.393Z,47.86
2022-08-17T10:55:14.391Z,47.74
2022-08-17T10:56:14.380Z,47.99
2022-08-17T10:57:14.569Z,48.69
2022-08-17T10:58:14.388Z,49.04
2022-08-17T10:59:14.357Z,49.29
2022-08-17T11:00:14.350Z,49.79
2022-08-17T11:01:14.458Z,49.68
2022-08-17T11:02:14.496Z,48.55
2022-08-17T11:03:14.327Z,48.09
2022-08-17T11:04:14.318Z,47.78
2022-08-17T11:05:14.302Z,47.45
2022-08-17T11:06:14.298Z,47.50
2022-08-17T11:07:14.309Z,47.37
2022-08-17T11:08:14.279Z,46.61
2022-08-17T11:09:14.269Z,46.32
2022-08-17T11:10:14.265Z,45.72
2022-08-17T11:11:14.253Z,45.48
2022-08-17T11:12:14.279Z,45.85
2022-08-17T11:13:14.241Z,46.39
2022-08-17T11:14:14.500Z,46.67
2022-08-17T11:15:14.233Z,46.91
2022-08-17T11:16:14.224Z,47.83
2022-08-17T11:17:14.221Z,48.24
2022-08-17T11:18:14.202Z,48.19
2022-08-17T11:19:14.187Z,48.41
2022-08-17T11:20:14.190Z,48.53
2022-08-17T11:21:14.166Z,49.06
2022-08-17T11:22:14.176Z,49.37
2022-08-17T11:23:14.166Z,49.13
2022-08-17T11:24:14.143Z,48.43
2022-08-17T11:25:14.147Z,47.88
2022-08-17T11:26:14.297Z,47.15
2022-08-17T11:27:14.675Z,46.70
2022-08-17T11:28:14.692Z,46.23
2022-08-17T11:29:15.123Z,46.04
2022-08-17T11:30:14.179Z,45.15
2022-08-17T11:31:14.102Z,44.40
2022-08-17T11:32:14.195Z,44.17
2022-08-17T11:33:14.172Z,44.17
2022-08-17T11:34:14.070Z,43.80
2022-08-17T11:35:14.622Z,43.24
2022-08-17T11:36:14.054Z,42.69
2022-08-17T11:37:14.039Z,42.25
2022-08-17T11:38:16.392Z,41.68
2022-08-17T11:39:14.015Z,41.25
2022-08-17T11:40:14.139Z,41.04
2022-08-17T11:41:13.999Z,40.88
2022-08-17T11:42:14.041Z,40.96
2022-08-17T11:43:14.667Z,41.02
2022-08-17T11:44:14.198Z,41.07
2022-08-17T11:45:17.572Z,41.16
2022-08-17T11:46:14.947Z,41.75
2022-08-17T11:47:13.939Z,42.82
2022-08-17T11:48:27.660Z,43.72
2022-08-17T11:49:14.918Z,43.76
2022-08-17T11:50:13.924Z,43.68
2022-08-17T11:51:13.904Z,43.15
2022-08-17T11:52:14.112Z,42.66
2022-08-17T11:53:13.892Z,42.36
2022-08-17T11:54:42.839Z,42.19
2022-08-17T11:55:34.714Z,42.41
2022-08-17T11:56:15.675Z,42.39
2022-08-17T11:57:13.876Z,41.92
2022-08-17T11:58:13.854Z,41.36
2022-08-17T11:59:13.833Z,40.92
2022-08-17T12:00:13.825Z,40.78
2022-08-17T12:01:13.865Z,40.90
2022-08-17T12:02:13.807Z,41.55
2022-08-17T12:03:14.103Z,41.43
2022-08-17T12:04:13.829Z,41.12
2022-08-17T12:05:13.780Z,41.02
2022-08-17T12:06:13.824Z,40.85
2022-08-17T12:07:13.760Z,40.65
2022-08-17T12:08:13.782Z,40.46
2022-08-17T12:09:13.937Z,40.14
2022-08-17T12:10:13.737Z,40.02
2022-08-17T12:11:13.782Z,39.83
2022-08-17T12:12:14.552Z,39.63
2022-08-17T12:13:13.728Z,39.46
2022-08-17T12:14:18.390Z,39.51
2022-08-17T12:15:15.634Z,39.96
2022-08-17T12:16:13.678Z,40.46
2022-08-17T12:17:13.728Z,40.87
2022-08-17T12:18:14.660Z,41.16
2022-08-17T12:19:13.684Z,41.33
2022-08-17T12:20:14.694Z,41.18
2022-08-17T12:21:13.636Z,40.99
2022-08-17T12:22:13.860Z,40.85
2022-08-17T12:23:13.620Z,40.53
2022-08-17T12:24:13.605Z,40.02
2022-08-17T12:25:13.598Z,39.81
2022-08-17T12:26:13.651Z,39.63
2022-08-17T12:27:13.597Z,39.33
2022-08-17T12:28:16.770Z,39.03
2022-08-17T12:29:18.419Z,38.82
2022-08-17T12:30:14.547Z,38.68
2022-08-17T12:31:13.541Z,38.55
2022-08-17T12:32:13.550Z,38.54
2022-08-17T12:33:13.547Z,38.38
2022-08-17T12:34:14.519Z,38.31
2022-08-17T12:35:13.515Z,38.24
2022-08-17T12:36:13.491Z,38.11
2022-08-17T12:37:13.714Z,38.12
2022-08-17T12:38:32.104Z,38.11
2022-08-17T12:39:21.220Z,38.28
2022-08-17T12:40:14.508Z,38.36
2022-08-17T12:41:13.443Z,38.52
2022-08-17T12:42:13.449Z,38.45
2022-08-17T12:43:13.482Z,38.46
2022-08-17T12:44:13.438Z,38.58
2022-08-17T12:45:13.524Z,38.54
2022-08-17T12:46:15.390Z,38.73
2022-08-17T12:47:16.757Z,38.65
2022-08-17T12:48:14.370Z,38.69
2022-08-17T12:49:13.366Z,38.62
2022-08-17T12:50:28.941Z,38.55
2022-08-17T12:51:14.347Z,38.61
2022-08-17T12:52:13.333Z,38.87
2022-08-17T12:53:13.344Z,38.64